BAW457 LEMD-EGLL
Flight info
| Callsign | BAW457 |
|---|---|
| Flight time | N/A |
| Altitude | 34000 |
| Route | SIE N858 DGO N867 NENEM DCT DIDIG UP87 ROXOG |
| Aircraft | A321/M-SDE3FGHIRWY/LB1 |
Departure
| Time | 2026-05-07 15:45 |
|---|---|
| Airport | Adolfo Suárez Madrid–Barajas Airport (LEMD) |
Arrival
| Time | N/A |
|---|---|
| Airport | London Heathrow Airport (EGLL) |
| Time | Latitude | Longitude | Altitude | Speed | Heading |
|---|---|---|---|---|---|
| 2026-05-07 15:10 | 40.46322 | -3.56854 | 1981 ft | 0 kts | 291° |
| 2026-05-07 15:32 | 40.46321 | -3.56852 | 1980 ft | 2 kts | 291° |
| 2026-05-07 15:32 | 40.46312 | -3.56822 | 1980 ft | 4 kts | 292° |
| 2026-05-07 15:32 | 40.46302 | -3.56791 | 1983 ft | 2 kts | 292° |
| 2026-05-07 15:32 | 40.46295 | -3.56761 | 1980 ft | 4 kts | 269° |
| 2026-05-07 15:33 | 40.46302 | -3.56729 | 1982 ft | 4 kts | 234° |
| 2026-05-07 15:33 | 40.46308 | -3.56718 | 1980 ft | 0 kts | 229° |
| 2026-05-07 15:36 | 40.46305 | -3.56723 | 1980 ft | 3 kts | 229° |
| 2026-05-07 15:36 | 40.46291 | -3.56747 | 1980 ft | 4 kts | 237° |
| 2026-05-07 15:36 | 40.46276 | -3.56777 | 1982 ft | 4 kts | 231° |
| 2026-05-07 15:36 | 40.46253 | -3.56807 | 1980 ft | 5 kts | 221° |
| 2026-05-07 15:37 | 40.46223 | -3.56835 | 1980 ft | 5 kts | 215° |
| 2026-05-07 15:37 | 40.46191 | -3.56865 | 1980 ft | 6 kts | 209° |
| 2026-05-07 15:37 | 40.46156 | -3.56850 | 1982 ft | 6 kts | 140° |
| 2026-05-07 15:37 | 40.46123 | -3.56814 | 1980 ft | 6 kts | 140° |
| 2026-05-07 15:38 | 40.46086 | -3.56774 | 1983 ft | 7 kts | 140° |
| 2026-05-07 15:38 | 40.46038 | -3.56754 | 1980 ft | 8 kts | 177° |
| 2026-05-07 15:38 | 40.45981 | -3.56751 | 1980 ft | 9 kts | 177° |
| 2026-05-07 15:38 | 40.45916 | -3.56747 | 1981 ft | 10 kts | 177° |
| 2026-05-07 15:39 | 40.45845 | -3.56741 | 1980 ft | 11 kts | 169° |
| 2026-05-07 15:39 | 40.45802 | -3.56667 | 1984 ft | 11 kts | 91° |
| 2026-05-07 15:39 | 40.45823 | -3.56567 | 1982 ft | 12 kts | 46° |
| 2026-05-07 15:39 | 40.45869 | -3.56479 | 1984 ft | 12 kts | 83° |
| 2026-05-07 15:40 | 40.45872 | -3.56363 | 1980 ft | 13 kts | 88° |
| 2026-05-07 15:40 | 40.45876 | -3.56242 | 1980 ft | 12 kts | 88° |
| 2026-05-07 15:40 | 40.45876 | -3.56139 | 1980 ft | 11 kts | 91° |
| 2026-05-07 15:40 | 40.45896 | -3.56056 | 1980 ft | 10 kts | 43° |
| 2026-05-07 15:41 | 40.45948 | -3.55991 | 1980 ft | 11 kts | 49° |
| 2026-05-07 15:41 | 40.45989 | -3.55908 | 1980 ft | 11 kts | 62° |
| 2026-05-07 15:41 | 40.46029 | -3.55812 | 1980 ft | 13 kts | 61° |
| 2026-05-07 15:41 | 40.46073 | -3.55708 | 1980 ft | 14 kts | 61° |
| 2026-05-07 15:42 | 40.46094 | -3.55586 | 1980 ft | 14 kts | 102° |
| 2026-05-07 15:42 | 40.46025 | -3.55489 | 1982 ft | 15 kts | 141° |
| 2026-05-07 15:42 | 40.45938 | -3.55400 | 1983 ft | 16 kts | 142° |
| 2026-05-07 15:42 | 40.45854 | -3.55299 | 1982 ft | 15 kts | 106° |
| 2026-05-07 15:43 | 40.45896 | -3.55171 | 1980 ft | 16 kts | 55° |
| 2026-05-07 15:43 | 40.45983 | -3.55087 | 1982 ft | 16 kts | 1° |
| 2026-05-07 15:43 | 40.46085 | -3.55158 | 1982 ft | 17 kts | 323° |
| 2026-05-07 15:43 | 40.46183 | -3.55256 | 1981 ft | 18 kts | 322° |
| 2026-05-07 15:44 | 40.46369 | -3.55445 | 1982 ft | 65 kts | 322° |
| 2026-05-07 15:44 | 40.46912 | -3.55989 | 1981 ft | 129 kts | 323° |
| 2026-05-07 15:44 | 40.47753 | -3.56852 | 1985 ft | 177 kts | 322° |
| 2026-05-07 15:44 | 40.48763 | -3.57875 | 2508 ft | 180 kts | 323° |
| 2026-05-07 15:45 | 40.49745 | -3.58847 | 3326 ft | 176 kts | 328° |
| 2026-05-07 15:45 | 40.50973 | -3.59185 | 3651 ft | 195 kts | 13° |
| 2026-05-07 15:45 | 40.52275 | -3.58470 | 3933 ft | 209 kts | 26° |
| 2026-05-07 15:45 | 40.53616 | -3.57679 | 4432 ft | 214 kts | 20° |
| 2026-05-07 15:46 | 40.56708 | -3.57805 | 5336 ft | 231 kts | 1° |
| 2026-05-07 15:46 | 40.58342 | -3.57798 | 5869 ft | 238 kts | 4° |
| 2026-05-07 15:46 | 40.60004 | -3.57565 | 6435 ft | 242 kts | 19° |
| 2026-05-07 15:47 | 40.61570 | -3.56669 | 6923 ft | 252 kts | 30° |
| 2026-05-07 15:47 | 40.63170 | -3.55642 | 7488 ft | 259 kts | 21° |
| 2026-05-07 15:47 | 40.64970 | -3.55457 | 8101 ft | 266 kts | 349° |
| 2026-05-07 15:47 | 40.66795 | -3.55911 | 8780 ft | 268 kts | 354° |
| 2026-05-07 15:48 | 40.68656 | -3.56048 | 9478 ft | 268 kts | 0° |
| 2026-05-07 15:48 | 40.70527 | -3.56021 | 10165 ft | 269 kts | 2° |
| 2026-05-07 15:48 | 40.72404 | -3.55945 | 10840 ft | 270 kts | 1° |
| 2026-05-07 15:48 | 40.74291 | -3.55892 | 11496 ft | 272 kts | 358° |
| 2026-05-07 15:49 | 40.76182 | -3.55986 | 12136 ft | 273 kts | 354° |
| 2026-05-07 15:49 | 40.78074 | -3.56169 | 12764 ft | 274 kts | 353° |
| 2026-05-07 15:49 | 40.79982 | -3.56363 | 13340 ft | 277 kts | 358° |
| 2026-05-07 15:49 | 40.81917 | -3.56066 | 13883 ft | 282 kts | 7° |
| 2026-05-07 15:50 | 40.83860 | -3.55658 | 14438 ft | 283 kts | 6° |
| 2026-05-07 15:50 | 40.85814 | -3.55249 | 14904 ft | 287 kts | 7° |
| 2026-05-07 15:50 | 40.87793 | -3.54817 | 15395 ft | 291 kts | 7° |
| 2026-05-07 15:50 | 40.89791 | -3.54376 | 15888 ft | 293 kts | 7° |
| 2026-05-07 15:51 | 40.91810 | -3.53950 | 16360 ft | 296 kts | 7° |
| 2026-05-07 15:51 | 40.93849 | -3.53515 | 16836 ft | 297 kts | 7° |
| 2026-05-07 15:51 | 40.95908 | -3.53071 | 17282 ft | 302 kts | 7° |
| 2026-05-07 15:51 | 40.97990 | -3.52623 | 17764 ft | 304 kts | 8° |
| 2026-05-07 15:52 | 41.00093 | -3.52168 | 18235 ft | 308 kts | 7° |
| 2026-05-07 15:52 | 41.02213 | -3.51702 | 18694 ft | 310 kts | 7° |
| 2026-05-07 15:52 | 41.04350 | -3.51234 | 19149 ft | 312 kts | 7° |
| 2026-05-07 15:52 | 41.06493 | -3.50768 | 19544 ft | 313 kts | 8° |
| 2026-05-07 15:53 | 41.08657 | -3.50296 | 19951 ft | 317 kts | 8° |
| 2026-05-07 15:53 | 41.10844 | -3.49819 | 20380 ft | 320 kts | 8° |
| 2026-05-07 15:53 | 41.13047 | -3.49340 | 20797 ft | 322 kts | 8° |
| 2026-05-07 15:53 | 41.15272 | -3.48860 | 21206 ft | 326 kts | 8° |
| 2026-05-07 15:54 | 41.17519 | -3.48373 | 21628 ft | 328 kts | 8° |
| 2026-05-07 15:54 | 41.19781 | -3.47882 | 22020 ft | 331 kts | 8° |
| 2026-05-07 15:54 | 41.22062 | -3.47387 | 22394 ft | 333 kts | 8° |
| 2026-05-07 15:54 | 41.24361 | -3.46883 | 22750 ft | 336 kts | 8° |
| 2026-05-07 15:55 | 41.26678 | -3.46375 | 23127 ft | 339 kts | 8° |
| 2026-05-07 15:55 | 41.29029 | -3.45863 | 23338 ft | 348 kts | 8° |
| 2026-05-07 15:55 | 41.31449 | -3.45335 | 23470 ft | 358 kts | 9° |
| 2026-05-07 15:55 | 41.33911 | -3.44790 | 23593 ft | 369 kts | 9° |
| 2026-05-07 15:56 | 41.36451 | -3.44230 | 24102 ft | 362 kts | 9° |
| 2026-05-07 15:56 | 41.38909 | -3.43689 | 24818 ft | 356 kts | 9° |
| 2026-05-07 15:56 | 41.41346 | -3.43156 | 25259 ft | 355 kts | 9° |
| 2026-05-07 15:56 | 41.43791 | -3.42625 | 25606 ft | 357 kts | 8° |
| 2026-05-07 15:57 | 41.46249 | -3.42092 | 25946 ft | 359 kts | 9° |
| 2026-05-07 15:57 | 41.48719 | -3.41541 | 26265 ft | 361 kts | 11° |
| 2026-05-07 15:57 | 41.51162 | -3.40697 | 26557 ft | 364 kts | 19° |
| 2026-05-07 15:57 | 41.53526 | -3.39480 | 26879 ft | 366 kts | 23° |
| 2026-05-07 15:58 | 41.55884 | -3.38167 | 27178 ft | 368 kts | 23° |
| 2026-05-07 15:58 | 41.58255 | -3.36852 | 27463 ft | 370 kts | 23° |
| 2026-05-07 15:58 | 41.60649 | -3.35529 | 27755 ft | 373 kts | 23° |
| 2026-05-07 15:58 | 41.63054 | -3.34201 | 28054 ft | 375 kts | 23° |
| 2026-05-07 15:59 | 41.65471 | -3.32867 | 28347 ft | 377 kts | 23° |
| 2026-05-07 15:59 | 41.67904 | -3.31526 | 28604 ft | 379 kts | 23° |
| 2026-05-07 15:59 | 41.69523 | -3.30632 | 28772 ft | 381 kts | 23° |
| 2026-05-07 15:59 | 41.71980 | -3.29273 | 29041 ft | 383 kts | 23° |
| 2026-05-07 16:00 | 41.74454 | -3.27901 | 29249 ft | 388 kts | 23° |
| 2026-05-07 16:00 | 41.76971 | -3.26503 | 29374 ft | 395 kts | 23° |
| 2026-05-07 16:00 | 41.79524 | -3.25082 | 29503 ft | 401 kts | 23° |
| 2026-05-07 16:00 | 41.82121 | -3.23637 | 29631 ft | 407 kts | 23° |
| 2026-05-07 16:01 | 41.84753 | -3.22171 | 29759 ft | 413 kts | 23° |
| 2026-05-07 16:01 | 41.87427 | -3.20683 | 29880 ft | 419 kts | 23° |
| 2026-05-07 16:01 | 41.90140 | -3.19169 | 30026 ft | 425 kts | 23° |
| 2026-05-07 16:01 | 41.92879 | -3.17639 | 30139 ft | 431 kts | 23° |
| 2026-05-07 16:02 | 41.95670 | -3.16081 | 30253 ft | 437 kts | 23° |
| 2026-05-07 16:02 | 41.98497 | -3.14502 | 30388 ft | 443 kts | 23° |
| 2026-05-07 16:02 | 42.01359 | -3.12900 | 30509 ft | 448 kts | 23° |
| 2026-05-07 16:02 | 42.04255 | -3.11273 | 30640 ft | 454 kts | 23° |
| 2026-05-07 16:03 | 42.07188 | -3.09623 | 30764 ft | 459 kts | 23° |
| 2026-05-07 16:03 | 42.10140 | -3.07959 | 30884 ft | 464 kts | 23° |
| 2026-05-07 16:03 | 42.13137 | -3.06270 | 31020 ft | 469 kts | 23° |
| 2026-05-07 16:03 | 42.16169 | -3.04562 | 31140 ft | 474 kts | 22° |
| 2026-05-07 16:04 | 42.19216 | -3.02848 | 31266 ft | 478 kts | 22° |
| 2026-05-07 16:04 | 42.22299 | -3.01115 | 31390 ft | 482 kts | 23° |
| 2026-05-07 16:04 | 42.25404 | -2.99369 | 31522 ft | 485 kts | 22° |
| 2026-05-07 16:04 | 42.28534 | -2.97605 | 31690 ft | 487 kts | 22° |
| 2026-05-07 16:05 | 42.31644 | -2.95852 | 31906 ft | 487 kts | 22° |
| 2026-05-07 16:05 | 42.34797 | -2.94070 | 32146 ft | 490 kts | 22° |
| 2026-05-07 16:05 | 42.37915 | -2.92305 | 32437 ft | 487 kts | 22° |
| 2026-05-07 16:05 | 42.41048 | -2.90536 | 32658 ft | 487 kts | 21° |
| 2026-05-07 16:06 | 42.44279 | -2.89158 | 32844 ft | 486 kts | 12° |
| 2026-05-07 16:06 | 42.47620 | -2.88429 | 33041 ft | 485 kts | 2° |
| 2026-05-07 16:06 | 42.50973 | -2.88356 | 33251 ft | 482 kts | 355° |
| 2026-05-07 16:06 | 42.54322 | -2.88540 | 33469 ft | 482 kts | 355° |
| 2026-05-07 16:07 | 42.57668 | -2.88715 | 33686 ft | 482 kts | 355° |
| 2026-05-07 16:07 | 42.61027 | -2.88890 | 33866 ft | 482 kts | 355° |
| 2026-05-07 16:07 | 42.64360 | -2.89065 | 33909 ft | 478 kts | 355° |
| 2026-05-07 16:08 | 42.70937 | -2.89410 | 33907 ft | 475 kts | 355° |
| 2026-05-07 16:08 | 42.77581 | -2.89751 | 33893 ft | 474 kts | 355° |
| 2026-05-07 16:09 | 42.84130 | -2.90078 | 33899 ft | 474 kts | 355° |
| 2026-05-07 16:09 | 42.90717 | -2.90420 | 33896 ft | 474 kts | 355° |
| 2026-05-07 16:10 | 42.97311 | -2.90777 | 33884 ft | 474 kts | 355° |
| 2026-05-07 16:10 | 43.03899 | -2.91134 | 33905 ft | 474 kts | 355° |
| 2026-05-07 16:11 | 43.10491 | -2.91488 | 33918 ft | 474 kts | 356° |
| 2026-05-07 16:11 | 43.17085 | -2.91826 | 33916 ft | 476 kts | 356° |
| 2026-05-07 16:12 | 43.23713 | -2.92158 | 33934 ft | 476 kts | 355° |
| 2026-05-07 16:12 | 43.30324 | -2.92641 | 33944 ft | 474 kts | 349° |
| 2026-05-07 16:13 | 43.36753 | -2.94522 | 33950 ft | 472 kts | 344° |
| 2026-05-07 16:13 | 43.43150 | -2.96515 | 33944 ft | 471 kts | 345° |
| 2026-05-07 16:14 | 43.49517 | -2.98497 | 33928 ft | 468 kts | 345° |
| 2026-05-07 16:14 | 43.55877 | -3.00483 | 33928 ft | 469 kts | 344° |
| 2026-05-07 16:15 | 43.62237 | -3.02475 | 33927 ft | 469 kts | 345° |
| 2026-05-07 16:15 | 43.68584 | -3.04459 | 33927 ft | 469 kts | 344° |
| 2026-05-07 16:16 | 43.74975 | -3.06366 | 33929 ft | 470 kts | 346° |
| 2026-05-07 16:16 | 43.81378 | -3.08181 | 33930 ft | 470 kts | 346° |
| 2026-05-07 16:17 | 43.87797 | -3.09987 | 33930 ft | 470 kts | 346° |
| 2026-05-07 16:17 | 43.94207 | -3.11829 | 33929 ft | 470 kts | 345° |
| 2026-05-07 16:18 | 44.00616 | -3.13673 | 33924 ft | 471 kts | 348° |
| 2026-05-07 16:18 | 44.07178 | -3.13762 | 33926 ft | 475 kts | 7° |
| 2026-05-07 16:19 | 44.13572 | -3.11364 | 33925 ft | 477 kts | 17° |
| 2026-05-07 16:19 | 44.19904 | -3.08605 | 33929 ft | 477 kts | 17° |
| 2026-05-07 16:20 | 44.26232 | -3.05844 | 33934 ft | 477 kts | 17° |
| 2026-05-07 16:20 | 44.32558 | -3.03077 | 33932 ft | 476 kts | 17° |
| 2026-05-07 16:21 | 44.38883 | -3.00308 | 33929 ft | 476 kts | 17° |
| 2026-05-07 16:21 | 44.45195 | -2.97529 | 33927 ft | 476 kts | 17° |
| 2026-05-07 16:22 | 44.51470 | -2.94759 | 33928 ft | 476 kts | 17° |
| 2026-05-07 16:22 | 44.57788 | -2.91971 | 33931 ft | 476 kts | 17° |
| 2026-05-07 16:23 | 44.64108 | -2.89170 | 33945 ft | 476 kts | 17° |
| 2026-05-07 16:23 | 44.70432 | -2.86363 | 33949 ft | 477 kts | 17° |
| 2026-05-07 16:24 | 44.76752 | -2.83560 | 33952 ft | 477 kts | 17° |
| 2026-05-07 16:24 | 44.83083 | -2.80749 | 33944 ft | 477 kts | 17° |
| 2026-05-07 16:25 | 44.89411 | -2.77920 | 33945 ft | 477 kts | 17° |
| 2026-05-07 16:25 | 44.95742 | -2.75083 | 33956 ft | 477 kts | 17° |
| 2026-05-07 16:26 | 45.02067 | -2.72253 | 33960 ft | 477 kts | 17° |
| 2026-05-07 16:26 | 45.08387 | -2.69408 | 33959 ft | 477 kts | 17° |
| 2026-05-07 16:27 | 45.14703 | -2.66537 | 33964 ft | 476 kts | 17° |
| 2026-05-07 16:27 | 45.21013 | -2.63688 | 33961 ft | 476 kts | 16° |
| 2026-05-07 16:28 | 45.27330 | -2.60843 | 33965 ft | 476 kts | 16° |
| 2026-05-07 16:28 | 45.33601 | -2.58014 | 33963 ft | 476 kts | 17° |
| 2026-05-07 16:29 | 45.39910 | -2.55132 | 33959 ft | 476 kts | 17° |
| 2026-05-07 16:29 | 45.46214 | -2.52243 | 33966 ft | 476 kts | 16° |
| 2026-05-07 16:30 | 45.52329 | -2.48975 | 34932 ft | 456 kts | 21° |
| 2026-05-07 16:30 | 45.55297 | -2.47375 | 34369 ft | 461 kts | 16° |
| 2026-05-07 16:30 | 45.58390 | -2.46064 | 34031 ft | 467 kts | 13° |
| 2026-05-07 16:30 | 45.61548 | -2.44874 | 33917 ft | 471 kts | 13° |
| 2026-05-07 16:31 | 45.64726 | -2.43673 | 33958 ft | 473 kts | 13° |
| 2026-05-07 16:31 | 45.71050 | -2.41013 | 33951 ft | 475 kts | 16° |
| 2026-05-07 16:32 | 45.77325 | -2.38054 | 33962 ft | 475 kts | 17° |
| 2026-05-07 16:32 | 45.83591 | -2.35045 | 33958 ft | 475 kts | 17° |
| 2026-05-07 16:33 | 45.89879 | -2.32108 | 33965 ft | 475 kts | 16° |